createdAt,value
2023-02-19T00:01:29.865Z,10.90
2023-02-19T00:03:59.144Z,10.90
2023-02-19T00:06:27.583Z,10.90
2023-02-19T00:08:55.647Z,10.80
2023-02-19T00:11:24.673Z,10.80
2023-02-19T00:13:53.271Z,10.80
2023-02-19T00:16:27.827Z,10.80
2023-02-19T00:18:56.261Z,10.80
2023-02-19T00:21:24.249Z,10.80
2023-02-19T00:23:52.624Z,10.80
2023-02-19T00:26:22.839Z,10.80
2023-02-19T00:28:51.404Z,10.80
2023-02-19T00:31:20.351Z,10.80
2023-02-19T00:33:48.949Z,10.80
2023-02-19T00:36:16.681Z,10.80
2023-02-19T00:38:44.558Z,10.80
2023-02-19T00:41:21.913Z,10.80
2023-02-19T00:43:54.472Z,10.80
2023-02-19T00:46:23.064Z,10.80
2023-02-19T00:48:52.559Z,10.80
2023-02-19T00:51:20.964Z,10.70
2023-02-19T00:53:48.918Z,10.80
2023-02-19T00:56:16.685Z,10.80
2023-02-19T00:58:43.993Z,10.70
2023-02-19T01:01:12.245Z,10.70
2023-02-19T01:03:40.214Z,10.70
2023-02-19T01:06:08.724Z,10.70
2023-02-19T01:08:36.626Z,10.70
2023-02-19T01:11:05.138Z,10.70
2023-02-19T01:13:33.401Z,10.70
2023-02-19T01:16:08.073Z,10.70
2023-02-19T01:18:35.706Z,10.60
2023-02-19T01:21:07.394Z,10.60
2023-02-19T01:23:35.860Z,10.60
2023-02-19T01:26:07.059Z,10.60
2023-02-19T01:28:35.046Z,10.60
2023-02-19T01:31:03.925Z,10.50
2023-02-19T01:33:31.728Z,10.60
2023-02-19T01:35:59.495Z,10.50
2023-02-19T01:38:27.612Z,10.50
2023-02-19T01:41:00.651Z,10.50
2023-02-19T01:43:29.108Z,10.50
2023-02-19T01:45:56.834Z,10.60
2023-02-19T01:48:27.344Z,10.60
2023-02-19T01:50:59.197Z,10.60
2023-02-19T01:53:29.960Z,10.50
2023-02-19T01:56:00.098Z,10.60
2023-02-19T01:58:29.992Z,10.60
2023-02-19T02:00:57.911Z,10.60
2023-02-19T02:03:25.751Z,10.60
2023-02-19T02:05:57.454Z,10.60
2023-02-19T02:08:44.601Z,10.60
2023-02-19T02:11:11.950Z,10.60
2023-02-19T02:13:40.364Z,10.60
2023-02-19T02:16:13.922Z,10.60
2023-02-19T02:18:50.653Z,10.60
2023-02-19T02:21:21.559Z,10.60
2023-02-19T02:24:07.989Z,10.50
2023-02-19T02:26:35.365Z,10.50
2023-02-19T02:29:10.547Z,10.40
2023-02-19T02:31:38.131Z,10.40
2023-02-19T02:34:14.658Z,10.30
2023-02-19T02:36:44.256Z,10.30
2023-02-19T02:39:12.986Z,10.20
2023-02-19T02:41:45.134Z,10.20
2023-02-19T02:44:13.519Z,10.20
2023-02-19T02:46:42.660Z,10.10
2023-02-19T02:49:14.935Z,10.10
2023-02-19T02:51:45.388Z,10.00
2023-02-19T02:54:39.190Z,10.00
2023-02-19T02:57:06.913Z,10.00
2023-02-19T02:59:36.568Z,9.90
2023-02-19T03:02:12.385Z,9.90
2023-02-19T03:05:04.568Z,9.90
2023-02-19T03:07:44.197Z,9.90
2023-02-19T03:10:13.597Z,9.80
2023-02-19T03:13:00.323Z,9.80
2023-02-19T03:15:50.018Z,9.70
2023-02-19T03:18:37.464Z,9.70
2023-02-19T03:21:07.086Z,9.70
2023-02-19T03:23:54.498Z,9.70
2023-02-19T03:26:24.818Z,9.70
2023-02-19T03:29:14.906Z,9.60
2023-02-19T03:31:43.841Z,9.60
2023-02-19T03:34:14.764Z,9.50
2023-02-19T03:36:51.106Z,9.50
2023-02-19T03:39:22.478Z,9.50
2023-02-19T03:41:59.843Z,9.50
2023-02-19T03:44:36.229Z,9.50
2023-02-19T03:47:08.350Z,9.50
2023-02-19T03:49:44.504Z,9.50
2023-02-19T03:52:17.890Z,9.40
2023-02-19T03:54:53.126Z,9.40
2023-02-19T03:57:51.773Z,9.40
2023-02-19T04:00:30.150Z,9.40
2023-02-19T04:03:00.843Z,9.40
2023-02-19T04:05:33.212Z,9.40
2023-02-19T04:08:04.159Z,9.40
2023-02-19T04:10:32.215Z,9.40
2023-02-19T04:13:02.307Z,9.40
2023-02-19T04:15:32.064Z,9.40
2023-02-19T04:17:59.700Z,9.40
2023-02-19T04:20:29.896Z,9.30
2023-02-19T04:22:57.943Z,9.30
2023-02-19T04:25:27.221Z,9.30
2023-02-19T04:27:54.690Z,9.30
2023-02-19T04:30:22.474Z,9.30
2023-02-19T04:32:49.910Z,9.30
2023-02-19T04:35:17.394Z,9.30
2023-02-19T04:37:46.446Z,9.30
2023-02-19T04:40:13.767Z,9.30
2023-02-19T04:42:41.264Z,9.30
2023-02-19T04:45:08.651Z,9.30
2023-02-19T04:47:36.349Z,9.30
2023-02-19T04:50:04.278Z,9.30
2023-02-19T04:52:33.462Z,9.30
2023-02-19T04:55:01.100Z,9.30
2023-02-19T04:57:29.176Z,9.30
2023-02-19T04:59:56.803Z,9.30
2023-02-19T05:02:24.409Z,9.30
2023-02-19T05:04:51.779Z,9.30
2023-02-19T05:07:19.246Z,9.30
2023-02-19T05:09:46.617Z,9.30
2023-02-19T05:12:14.037Z,9.30
2023-02-19T05:14:41.460Z,9.30
2023-02-19T05:17:09.050Z,9.30
2023-02-19T05:19:36.569Z,9.30
2023-02-19T05:22:03.840Z,9.30
2023-02-19T05:24:31.588Z,9.30
2023-02-19T05:26:59.220Z,9.30
2023-02-19T05:29:26.657Z,9.30
2023-02-19T05:31:54.478Z,9.30
2023-02-19T05:34:22.064Z,9.20
2023-02-19T05:36:49.543Z,9.20
2023-02-19T05:39:20.714Z,9.20
2023-02-19T05:41:48.635Z,9.20
2023-02-19T05:44:16.085Z,9.20
2023-02-19T05:46:43.540Z,9.20
2023-02-19T05:49:11.003Z,9.20
2023-02-19T05:51:38.622Z,9.20
2023-02-19T05:54:06.114Z,9.20
2023-02-19T05:56:37.601Z,9.20
2023-02-19T05:59:14.902Z,9.20
2023-02-19T06:01:42.631Z,9.20
2023-02-19T06:04:15.043Z,9.20
2023-02-19T06:06:42.746Z,9.20
2023-02-19T06:09:10.539Z,9.20
2023-02-19T06:11:38.303Z,9.20
2023-02-19T06:14:05.769Z,9.20
2023-02-19T06:16:34.547Z,9.20
2023-02-19T06:19:03.786Z,9.20
2023-02-19T06:21:31.511Z,9.20
2023-02-19T06:23:59.169Z,9.20
2023-02-19T06:26:27.150Z,9.20
2023-02-19T06:28:55.032Z,9.20
2023-02-19T06:31:22.837Z,9.20
2023-02-19T06:33:50.985Z,9.20
2023-02-19T06:36:19.345Z,9.20
2023-02-19T06:38:47.601Z,9.20
2023-02-19T06:41:15.896Z,9.10
2023-02-19T06:43:43.378Z,9.10
2023-02-19T06:46:11.670Z,9.10
2023-02-19T06:48:39.852Z,9.00
2023-02-19T06:51:07.843Z,9.10
2023-02-19T06:53:35.289Z,9.10
2023-02-19T06:56:07.707Z,9.20
2023-02-19T06:58:35.610Z,9.30
2023-02-19T07:01:03.408Z,9.30
2023-02-19T07:03:33.851Z,9.40
2023-02-19T07:06:01.450Z,9.40
2023-02-19T07:08:29.732Z,9.40
2023-02-19T07:10:58.064Z,9.50
2023-02-19T07:13:27.164Z,9.60
2023-02-19T07:15:59.205Z,9.60
2023-02-19T07:18:26.847Z,9.70
2023-02-19T07:20:54.470Z,9.80
2023-02-19T07:23:22.006Z,9.80
2023-02-19T07:25:49.572Z,10.00
2023-02-19T07:28:19.183Z,10.00
2023-02-19T07:30:48.873Z,10.10
2023-02-19T07:33:19.080Z,10.10
2023-02-19T07:35:50.715Z,10.10
2023-02-19T07:38:19.293Z,10.20
2023-02-19T07:40:56.981Z,10.20
2023-02-19T07:43:25.484Z,10.20
2023-02-19T07:45:55.403Z,10.30
2023-02-19T07:48:23.136Z,10.30
2023-02-19T07:50:51.887Z,10.30
2023-02-19T07:53:20.019Z,10.30
2023-02-19T07:55:48.660Z,10.30
2023-02-19T07:58:16.874Z,10.30
2023-02-19T08:00:47.325Z,10.30
2023-02-19T08:03:21.949Z,10.30
2023-02-19T08:05:51.553Z,10.40
2023-02-19T08:08:19.342Z,10.40
2023-02-19T08:11:06.246Z,10.40
2023-02-19T08:13:34.220Z,10.50
2023-02-19T08:16:16.976Z,10.50
2023-02-19T08:18:45.442Z,10.60
2023-02-19T08:21:13.420Z,10.60
2023-02-19T08:23:41.362Z,10.60
2023-02-19T08:26:10.338Z,10.50
2023-02-19T08:28:37.843Z,10.50
2023-02-19T08:31:08.700Z,10.50
2023-02-19T08:33:36.853Z,10.50
2023-02-19T08:36:05.887Z,10.50
2023-02-19T08:38:35.795Z,10.50
2023-02-19T08:41:04.657Z,10.40
2023-02-19T08:43:32.255Z,10.50
2023-02-19T08:45:59.868Z,10.60
2023-02-19T08:48:29.120Z,10.70
2023-02-19T08:50:58.602Z,10.70
2023-02-19T08:53:27.300Z,10.60
2023-02-19T08:55:54.825Z,10.60
2023-02-19T08:58:22.596Z,10.70
2023-02-19T09:00:50.225Z,10.60
2023-02-19T09:03:17.880Z,10.80
2023-02-19T09:05:46.812Z,10.80
2023-02-19T09:08:14.433Z,10.80
2023-02-19T09:10:41.993Z,10.80
2023-02-19T09:13:09.378Z,10.80
2023-02-19T09:15:39.924Z,10.70
2023-02-19T09:18:07.692Z,10.70
2023-02-19T09:20:35.135Z,10.60
2023-02-19T09:23:02.535Z,10.60
2023-02-19T09:25:30.085Z,10.60
2023-02-19T09:27:57.948Z,10.60
2023-02-19T09:30:25.952Z,10.50
2023-02-19T09:32:54.052Z,10.40
2023-02-19T09:35:21.516Z,10.40
2023-02-19T09:37:49.031Z,10.30
2023-02-19T09:40:24.113Z,10.30
2023-02-19T09:42:52.368Z,10.30
2023-02-19T09:45:23.022Z,10.30
2023-02-19T09:47:54.087Z,10.30
2023-02-19T09:50:23.364Z,10.30
2023-02-19T09:52:57.056Z,10.30
2023-02-19T09:58:35.657Z,10.50
2023-02-19T10:01:06.439Z,10.60
2023-02-19T10:03:43.261Z,10.70
2023-02-19T10:06:15.078Z,10.80
2023-02-19T10:08:48.150Z,10.80
2023-02-19T10:11:16.000Z,10.90
2023-02-19T10:13:52.670Z,11.00
2023-02-19T10:16:28.566Z,11.20
2023-02-19T10:18:56.669Z,11.30
2023-02-19T10:21:27.023Z,11.40
2023-02-19T10:23:57.278Z,11.60
2023-02-19T10:26:26.410Z,11.70
2023-02-19T10:28:55.658Z,11.90
2023-02-19T10:31:25.173Z,12.00
2023-02-19T10:33:57.931Z,12.20
2023-02-19T10:36:39.645Z,12.20
2023-02-19T10:39:22.478Z,12.30
2023-02-19T10:41:53.503Z,12.40
2023-02-19T10:44:23.957Z,12.40
2023-02-19T10:46:57.467Z,12.60
2023-02-19T10:49:35.064Z,12.80
2023-02-19T10:52:17.764Z,13.00
2023-02-19T10:54:52.772Z,13.20
2023-02-19T10:57:43.389Z,13.30
2023-02-19T11:00:34.068Z,13.40
2023-02-19T11:03:14.362Z,13.30
2023-02-19T11:06:04.607Z,13.20
2023-02-19T11:08:49.805Z,13.10
2023-02-19T11:11:43.914Z,13.30
2023-02-19T11:14:16.058Z,13.40
2023-02-19T11:16:44.242Z,13.50
2023-02-19T11:19:28.220Z,13.40
2023-02-19T11:21:56.222Z,13.30
2023-02-19T11:24:27.439Z,13.30
2023-02-19T11:26:55.705Z,13.10
2023-02-19T11:29:31.908Z,13.00
2023-02-19T11:32:17.604Z,12.80
2023-02-19T11:34:46.210Z,12.80
2023-02-19T11:37:24.614Z,12.80
2023-02-19T11:39:52.437Z,12.90
2023-02-19T11:42:39.541Z,13.00
2023-02-19T11:45:17.262Z,13.10
2023-02-19T11:47:50.960Z,13.10
2023-02-19T11:50:25.089Z,13.30
2023-02-19T11:53:20.375Z,13.50
2023-02-19T11:55:54.650Z,13.80
2023-02-19T11:58:41.472Z,13.80
2023-02-19T12:01:28.848Z,13.80
2023-02-19T12:04:10.667Z,13.70
2023-02-19T12:06:44.053Z,13.60
2023-02-19T12:09:31.250Z,13.50
2023-02-19T12:12:02.450Z,13.50
2023-02-19T12:14:36.312Z,13.40
2023-02-19T12:17:24.434Z,13.50
2023-02-19T12:20:15.579Z,13.50
2023-02-19T12:22:49.223Z,13.40
2023-02-19T12:25:16.697Z,13.50
2023-02-19T12:27:55.467Z,13.60
2023-02-19T12:30:34.845Z,13.60
2023-02-19T12:33:09.534Z,13.50
2023-02-19T12:35:55.727Z,13.50
2023-02-19T12:38:28.703Z,13.40
2023-02-19T12:41:06.502Z,13.30
2023-02-19T12:43:34.972Z,13.30
2023-02-19T12:46:25.067Z,13.20
2023-02-19T12:49:01.760Z,13.10
2023-02-19T12:51:29.861Z,13.00
2023-02-19T12:54:01.339Z,13.00
2023-02-19T12:56:29.114Z,12.80
2023-02-19T12:59:04.482Z,12.80
2023-02-19T13:01:34.668Z,12.80
2023-02-19T13:04:18.531Z,12.80
2023-02-19T13:06:58.810Z,13.00
2023-02-19T13:09:30.931Z,13.10
2023-02-19T13:12:17.462Z,13.30
2023-02-19T13:14:57.732Z,13.30
2023-02-19T13:17:28.554Z,13.30
2023-02-19T13:19:59.591Z,13.30
2023-02-19T13:22:54.995Z,13.20
2023-02-19T13:25:29.343Z,13.10
2023-02-19T13:28:12.247Z,13.10
2023-02-19T13:30:59.295Z,13.10
2023-02-19T13:33:37.321Z,13.00
2023-02-19T13:36:12.913Z,13.10
2023-02-19T13:38:44.757Z,13.10
2023-02-19T13:41:27.615Z,13.00
2023-02-19T13:44:05.048Z,13.00
2023-02-19T13:46:41.139Z,12.90
2023-02-19T13:49:29.994Z,12.90
2023-02-19T13:51:58.999Z,12.80
2023-02-19T13:54:37.073Z,12.80
2023-02-19T13:57:23.084Z,12.80
2023-02-19T13:59:52.664Z,12.70
2023-02-19T14:02:20.352Z,12.80
2023-02-19T14:04:54.263Z,12.80
2023-02-19T14:07:40.438Z,12.80
2023-02-19T14:10:11.829Z,12.70
2023-02-19T14:12:40.126Z,12.70
2023-02-19T14:15:26.495Z,12.70
2023-02-19T14:17:57.549Z,12.70
2023-02-19T14:20:28.769Z,12.60
2023-02-19T14:23:01.851Z,12.60
2023-02-19T14:25:49.692Z,12.50
2023-02-19T14:28:24.140Z,12.50
2023-02-19T14:31:22.826Z,12.40
2023-02-19T14:33:53.154Z,12.30
2023-02-19T14:36:26.989Z,12.30
2023-02-19T14:38:56.594Z,12.20
2023-02-19T14:41:24.836Z,12.30
2023-02-19T14:43:54.442Z,12.30
2023-02-19T14:46:35.098Z,12.30
2023-02-19T14:49:18.460Z,12.30
2023-02-19T14:51:53.595Z,12.30
2023-02-19T14:54:26.875Z,12.30
2023-02-19T14:56:55.364Z,12.30
2023-02-19T14:59:26.751Z,12.30
2023-02-19T15:02:00.152Z,12.20
2023-02-19T15:04:29.900Z,12.20
2023-02-19T15:07:00.614Z,12.10
2023-02-19T15:09:33.889Z,12.00
2023-02-19T15:12:03.157Z,12.00
2023-02-19T15:14:33.434Z,11.90
2023-02-19T15:17:04.172Z,11.80
2023-02-19T15:19:37.072Z,11.70
2023-02-19T15:22:05.089Z,11.70
2023-02-19T15:24:32.787Z,11.60
2023-02-19T15:27:02.612Z,11.60
2023-02-19T15:29:34.050Z,11.60
2023-02-19T15:32:02.505Z,11.60
2023-02-19T15:34:31.948Z,11.50
2023-02-19T15:37:07.785Z,11.40
2023-02-19T15:39:37.661Z,11.40
2023-02-19T15:42:06.521Z,11.30
2023-02-19T15:44:36.350Z,11.30
2023-02-19T15:47:13.653Z,11.20
2023-02-19T15:49:46.641Z,11.10
2023-02-19T15:52:22.237Z,11.00
2023-02-19T15:54:53.072Z,10.90
2023-02-19T15:57:27.748Z,10.80
2023-02-19T16:00:14.539Z,10.60
2023-02-19T16:02:42.694Z,10.50
2023-02-19T16:05:16.046Z,10.30
2023-02-19T16:07:44.049Z,10.30
2023-02-19T16:10:17.928Z,10.20
2023-02-19T16:12:57.495Z,10.00
2023-02-19T16:15:26.945Z,9.80
2023-02-19T16:17:56.441Z,9.70
2023-02-19T16:20:26.882Z,9.60
2023-02-19T16:23:02.707Z,9.40
2023-02-19T16:25:42.217Z,9.30
2023-02-19T16:28:14.525Z,9.20
2023-02-19T16:30:44.580Z,9.10
2023-02-19T16:33:24.206Z,8.90
2023-02-19T16:35:52.988Z,8.80
2023-02-19T16:38:21.073Z,8.70
2023-02-19T16:40:49.436Z,8.60
2023-02-19T16:43:18.603Z,8.50
2023-02-19T16:45:47.457Z,8.40
2023-02-19T16:48:22.635Z,8.30
2023-02-19T16:50:51.737Z,8.30
2023-02-19T16:53:26.179Z,8.30
2023-02-19T16:55:56.531Z,8.30
2023-02-19T16:58:24.090Z,8.30
2023-02-19T17:00:52.059Z,8.20
2023-02-19T17:03:21.627Z,8.30
2023-02-19T17:05:49.544Z,8.20
2023-02-19T17:08:37.127Z,8.20
2023-02-19T17:11:11.271Z,8.20
2023-02-19T17:13:39.451Z,8.20
2023-02-19T17:16:06.630Z,8.10
2023-02-19T17:18:35.231Z,8.10
2023-02-19T17:21:20.853Z,8.10
2023-02-19T17:23:48.630Z,8.10
2023-02-19T17:26:17.914Z,8.10
2023-02-19T17:28:46.541Z,8.10
2023-02-19T17:31:17.057Z,8.10
2023-02-19T17:33:45.129Z,8.10
2023-02-19T17:36:26.973Z,8.10
2023-02-19T17:38:56.554Z,8.10
2023-02-19T17:41:24.469Z,8.10
2023-02-19T17:43:52.157Z,8.10
2023-02-19T17:46:22.819Z,8.10
2023-02-19T17:48:50.753Z,8.00
2023-02-19T17:51:18.703Z,8.00
2023-02-19T17:53:46.924Z,8.00
2023-02-19T17:56:21.996Z,8.10
2023-02-19T17:58:49.505Z,8.10
2023-02-19T18:01:17.210Z,8.00
2023-02-19T18:03:44.791Z,8.00
2023-02-19T18:06:12.246Z,8.00
2023-02-19T18:08:40.060Z,8.00
2023-02-19T18:11:07.700Z,8.00
2023-02-19T18:13:35.340Z,8.00
2023-02-19T18:16:02.695Z,8.00
2023-02-19T18:18:30.418Z,8.00
2023-02-19T18:20:57.734Z,8.00
2023-02-19T18:23:25.686Z,8.10
2023-02-19T18:25:53.224Z,8.10
2023-02-19T18:28:21.824Z,8.10
2023-02-19T18:30:49.507Z,8.00
2023-02-19T18:33:17.397Z,8.10
2023-02-19T18:35:47.417Z,8.10
2023-02-19T18:38:14.932Z,8.10
2023-02-19T18:40:42.368Z,8.10
2023-02-19T18:43:10.093Z,8.10
2023-02-19T18:45:37.758Z,8.10
2023-02-19T18:48:05.358Z,8.10
2023-02-19T18:50:34.968Z,8.10
2023-02-19T18:53:02.455Z,8.20
2023-02-19T18:55:29.984Z,8.10
2023-02-19T18:57:57.472Z,8.10
2023-02-19T19:00:26.514Z,8.10
2023-02-19T19:03:00.415Z,8.10
2023-02-19T19:05:28.261Z,8.10
2023-02-19T19:07:57.880Z,8.10
2023-02-19T19:10:25.539Z,8.10
2023-02-19T19:12:54.104Z,8.10
2023-02-19T19:15:21.538Z,8.10
2023-02-19T19:17:49.501Z,8.10
2023-02-19T19:20:18.081Z,8.00
2023-02-19T19:22:45.325Z,8.00
2023-02-19T19:25:13.481Z,8.00
2023-02-19T19:27:40.786Z,8.00
2023-02-19T19:30:08.743Z,8.00
2023-02-19T19:32:37.112Z,8.00
2023-02-19T19:35:05.500Z,8.00
2023-02-19T19:37:33.185Z,8.00
2023-02-19T19:40:00.557Z,8.00
2023-02-19T19:42:28.868Z,8.00
2023-02-19T19:44:57.133Z,7.90
2023-02-19T19:47:24.510Z,7.90
2023-02-19T19:49:52.082Z,8.00
2023-02-19T19:52:19.644Z,7.90
2023-02-19T19:54:47.098Z,7.90
2023-02-19T19:57:15.899Z,7.90
2023-02-19T19:59:43.326Z,7.80
2023-02-19T20:02:11.668Z,7.80
2023-02-19T20:04:39.325Z,7.80
2023-02-19T20:07:06.771Z,7.80
2023-02-19T20:09:34.512Z,7.80
2023-02-19T20:12:05.075Z,7.80
2023-02-19T20:14:33.832Z,7.80
2023-02-19T20:17:01.594Z,7.70
2023-02-19T20:19:29.445Z,7.70
2023-02-19T20:21:56.899Z,7.70
2023-02-19T20:24:26.007Z,7.70
2023-02-19T20:26:53.929Z,7.70
2023-02-19T20:29:21.576Z,7.60
2023-02-19T20:31:49.978Z,7.60
2023-02-19T20:34:18.084Z,7.60
2023-02-19T20:36:46.764Z,7.60
2023-02-19T20:39:15.282Z,7.60
2023-02-19T20:41:46.712Z,7.60
2023-02-19T20:44:14.396Z,7.70
2023-02-19T20:46:46.230Z,7.60
2023-02-19T20:49:15.043Z,7.60
2023-02-19T20:51:45.120Z,7.60
2023-02-19T20:54:13.058Z,7.70
2023-02-19T20:56:48.166Z,7.70
2023-02-19T20:59:16.333Z,7.70
2023-02-19T21:01:44.608Z,7.70
2023-02-19T21:04:13.098Z,7.70
2023-02-19T21:06:41.066Z,7.70
2023-02-19T21:09:08.426Z,7.70
2023-02-19T21:11:35.707Z,7.70
2023-02-19T21:14:03.203Z,7.70
2023-02-19T21:16:32.204Z,7.70
2023-02-19T21:18:59.780Z,7.70
2023-02-19T21:21:27.978Z,7.70
2023-02-19T21:23:57.166Z,7.70
2023-02-19T21:26:25.775Z,7.70
2023-02-19T21:28:53.437Z,7.70
2023-02-19T21:31:22.799Z,7.70
2023-02-19T21:33:51.574Z,7.70
2023-02-19T21:36:19.143Z,7.60
2023-02-19T21:38:47.027Z,7.70
2023-02-19T21:41:14.476Z,7.60
2023-02-19T21:43:44.422Z,7.60
2023-02-19T21:46:17.766Z,7.60
2023-02-19T21:48:47.706Z,7.60
2023-02-19T21:51:16.104Z,7.60
2023-02-19T21:53:43.471Z,7.60
2023-02-19T21:56:11.095Z,7.60
2023-02-19T21:58:39.089Z,7.60
2023-02-19T22:01:06.746Z,7.60
2023-02-19T22:03:34.324Z,7.50
2023-02-19T22:06:02.402Z,7.50
2023-02-19T22:08:29.684Z,7.50
2023-02-19T22:10:57.446Z,7.50
2023-02-19T22:13:25.129Z,7.50
2023-02-19T22:15:53.761Z,7.50
2023-02-19T22:18:21.182Z,7.50
2023-02-19T22:20:48.948Z,7.50
2023-02-19T22:23:16.452Z,7.50
2023-02-19T22:25:43.884Z,7.50
2023-02-19T22:28:11.246Z,7.50
2023-02-19T22:30:38.800Z,7.50
2023-02-19T22:33:06.200Z,7.50
2023-02-19T22:35:33.638Z,7.50
2023-02-19T22:38:01.122Z,7.50
2023-02-19T22:40:28.725Z,7.40
2023-02-19T22:42:56.722Z,7.40
2023-02-19T22:45:26.089Z,7.50
2023-02-19T22:47:54.270Z,7.40
2023-02-19T22:50:22.566Z,7.40
2023-02-19T22:52:50.336Z,7.40
2023-02-19T22:55:18.152Z,7.40
2023-02-19T22:57:46.309Z,7.40
2023-02-19T23:00:18.568Z,7.40
2023-02-19T23:02:48.237Z,7.40
2023-02-19T23:05:17.947Z,7.30
2023-02-19T23:07:46.099Z,7.40
2023-02-19T23:10:17.651Z,7.40
2023-02-19T23:12:47.677Z,7.40
2023-02-19T23:15:15.299Z,7.40
2023-02-19T23:17:42.941Z,7.30
2023-02-19T23:20:10.636Z,7.30
2023-02-19T23:22:38.696Z,7.30
2023-02-19T23:25:06.840Z,7.30
2023-02-19T23:27:35.269Z,7.30
2023-02-19T23:30:02.938Z,7.30
2023-02-19T23:32:30.748Z,7.30
2023-02-19T23:34:58.530Z,7.30
2023-02-19T23:37:25.907Z,7.30
2023-02-19T23:39:54.650Z,7.30
2023-02-19T23:42:22.490Z,7.30
2023-02-19T23:44:51.137Z,7.30
2023-02-19T23:47:20.083Z,7.40
2023-02-19T23:49:49.036Z,7.40
2023-02-19T23:52:17.944Z,7.30
2023-02-19T23:54:45.982Z,7.30
2023-02-19T23:57:14.174Z,7.40
2023-02-19T23:59:43.031Z,7.30
